sensor_id;sensor_type;location;lat;lon;timestamp;P1;durP1;ratioP1;P2;durP2;ratioP2
5167;SDS011;2603;48.918;8.980;2022-08-19T00:01:54;15.47;;;10.00;;
5167;SDS011;2603;48.918;8.980;2022-08-19T00:04:22;15.23;;;10.40;;
5167;SDS011;2603;48.918;8.980;2022-08-19T00:06:50;18.07;;;11.67;;
5167;SDS011;2603;48.918;8.980;2022-08-19T00:09:19;16.47;;;10.00;;
5167;SDS011;2603;48.918;8.980;2022-08-19T00:11:46;33.70;;;11.90;;
5167;SDS011;2603;48.918;8.980;2022-08-19T00:14:14;14.37;;;10.17;;
5167;SDS011;2603;48.918;8.980;2022-08-19T00:16:42;17.63;;;10.20;;
5167;SDS011;2603;48.918;8.980;2022-08-19T00:19:10;15.87;;;10.53;;
5167;SDS011;2603;48.918;8.980;2022-08-19T00:21:36;17.73;;;11.40;;
5167;SDS011;2603;48.918;8.980;2022-08-19T00:24:05;18.70;;;10.63;;
5167;SDS011;2603;48.918;8.980;2022-08-19T00:26:34;17.33;;;10.33;;
5167;SDS011;2603;48.918;8.980;2022-08-19T00:29:01;17.50;;;10.27;;
5167;SDS011;2603;48.918;8.980;2022-08-19T00:31:28;18.60;;;11.47;;
5167;SDS011;2603;48.918;8.980;2022-08-19T00:33:56;15.00;;;10.60;;
5167;SDS011;2603;48.918;8.980;2022-08-19T00:36:22;22.30;;;11.73;;
5167;SDS011;2603;48.918;8.980;2022-08-19T00:38:49;17.13;;;11.63;;
5167;SDS011;2603;48.918;8.980;2022-08-19T00:41:17;17.10;;;11.17;;
5167;SDS011;2603;48.918;8.980;2022-08-19T00:43:57;17.83;;;11.70;;
5167;SDS011;2603;48.918;8.980;2022-08-19T00:46:28;18.70;;;11.17;;
5167;SDS011;2603;48.918;8.980;2022-08-19T00:48:55;18.20;;;11.27;;
5167;SDS011;2603;48.918;8.980;2022-08-19T00:51:22;20.07;;;11.30;;
5167;SDS011;2603;48.918;8.980;2022-08-19T00:53:52;18.40;;;12.73;;
5167;SDS011;2603;48.918;8.980;2022-08-19T00:56:18;15.60;;;11.13;;
5167;SDS011;2603;48.918;8.980;2022-08-19T00:58:45;23.33;;;14.30;;
5167;SDS011;2603;48.918;8.980;2022-08-19T01:01:13;18.43;;;12.20;;
5167;SDS011;2603;48.918;8.980;2022-08-19T01:03:40;20.90;;;12.40;;
5167;SDS011;2603;48.918;8.980;2022-08-19T01:06:06;23.73;;;14.10;;
5167;SDS011;2603;48.918;8.980;2022-08-19T01:08:33;22.33;;;12.80;;
5167;SDS011;2603;48.918;8.980;2022-08-19T01:11:00;22.10;;;13.00;;
5167;SDS011;2603;48.918;8.980;2022-08-19T01:13:28;19.50;;;13.00;;
5167;SDS011;2603;48.918;8.980;2022-08-19T01:15:58;22.83;;;13.23;;
5167;SDS011;2603;48.918;8.980;2022-08-19T01:18:29;21.20;;;13.30;;
5167;SDS011;2603;48.918;8.980;2022-08-19T01:20:56;23.03;;;12.80;;
5167;SDS011;2603;48.918;8.980;2022-08-19T01:23:27;20.10;;;13.13;;
5167;SDS011;2603;48.918;8.980;2022-08-19T01:26:08;20.63;;;12.83;;
5167;SDS011;2603;48.918;8.980;2022-08-19T01:28:36;23.83;;;14.00;;
5167;SDS011;2603;48.918;8.980;2022-08-19T01:31:03;22.20;;;13.33;;
5167;SDS011;2603;48.918;8.980;2022-08-19T01:33:30;23.80;;;13.13;;
5167;SDS011;2603;48.918;8.980;2022-08-19T01:36:02;22.40;;;14.10;;
5167;SDS011;2603;48.918;8.980;2022-08-19T01:38:34;23.93;;;13.30;;
5167;SDS011;2603;48.918;8.980;2022-08-19T01:41:01;23.80;;;14.23;;
5167;SDS011;2603;48.918;8.980;2022-08-19T01:43:28;23.97;;;13.60;;
5167;SDS011;2603;48.918;8.980;2022-08-19T01:45:55;20.97;;;13.00;;
5167;SDS011;2603;48.918;8.980;2022-08-19T01:48:21;19.00;;;12.57;;
5167;SDS011;2603;48.918;8.980;2022-08-19T01:50:48;21.13;;;14.00;;
5167;SDS011;2603;48.918;8.980;2022-08-19T01:53:16;22.53;;;14.07;;
5167;SDS011;2603;48.918;8.980;2022-08-19T01:55:44;25.40;;;15.40;;
5167;SDS011;2603;48.918;8.980;2022-08-19T01:58:12;21.67;;;14.27;;
5167;SDS011;2603;48.918;8.980;2022-08-19T02:00:41;22.00;;;14.17;;
5167;SDS011;2603;48.918;8.980;2022-08-19T02:03:08;22.10;;;13.97;;
5167;SDS011;2603;48.918;8.980;2022-08-19T02:05:36;23.17;;;14.03;;
5167;SDS011;2603;48.918;8.980;2022-08-19T02:08:03;25.63;;;15.03;;
5167;SDS011;2603;48.918;8.980;2022-08-19T02:10:30;24.90;;;15.03;;
5167;SDS011;2603;48.918;8.980;2022-08-19T02:12:59;22.97;;;14.37;;
5167;SDS011;2603;48.918;8.980;2022-08-19T02:15:25;21.47;;;14.87;;
5167;SDS011;2603;48.918;8.980;2022-08-19T02:17:52;20.13;;;13.00;;
5167;SDS011;2603;48.918;8.980;2022-08-19T02:20:19;24.37;;;15.17;;
5167;SDS011;2603;48.918;8.980;2022-08-19T02:22:45;23.20;;;14.43;;
5167;SDS011;2603;48.918;8.980;2022-08-19T02:25:12;23.47;;;15.47;;
5167;SDS011;2603;48.918;8.980;2022-08-19T02:27:40;23.30;;;14.57;;
5167;SDS011;2603;48.918;8.980;2022-08-19T02:30:14;24.57;;;14.77;;
5167;SDS011;2603;48.918;8.980;2022-08-19T02:32:42;23.43;;;14.10;;
5167;SDS011;2603;48.918;8.980;2022-08-19T02:35:09;23.87;;;15.60;;
5167;SDS011;2603;48.918;8.980;2022-08-19T02:37:36;25.37;;;16.83;;
5167;SDS011;2603;48.918;8.980;2022-08-19T02:40:20;29.40;;;16.70;;
5167;SDS011;2603;48.918;8.980;2022-08-19T02:42:47;26.00;;;16.47;;
5167;SDS011;2603;48.918;8.980;2022-08-19T02:45:15;23.63;;;15.70;;
5167;SDS011;2603;48.918;8.980;2022-08-19T02:47:42;22.90;;;15.20;;
5167;SDS011;2603;48.918;8.980;2022-08-19T02:50:08;29.30;;;17.20;;
5167;SDS011;2603;48.918;8.980;2022-08-19T02:52:36;27.40;;;16.03;;
5167;SDS011;2603;48.918;8.980;2022-08-19T02:55:03;27.07;;;17.67;;
5167;SDS011;2603;48.918;8.980;2022-08-19T02:57:30;25.33;;;16.60;;
5167;SDS011;2603;48.918;8.980;2022-08-19T02:59:57;22.60;;;16.27;;
5167;SDS011;2603;48.918;8.980;2022-08-19T03:02:28;28.67;;;16.73;;
5167;SDS011;2603;48.918;8.980;2022-08-19T03:04:55;24.97;;;16.20;;
5167;SDS011;2603;48.918;8.980;2022-08-19T03:07:22;29.03;;;17.77;;
5167;SDS011;2603;48.918;8.980;2022-08-19T03:09:48;26.90;;;17.07;;
5167;SDS011;2603;48.918;8.980;2022-08-19T03:12:15;24.23;;;16.93;;
5167;SDS011;2603;48.918;8.980;2022-08-19T03:14:42;23.30;;;16.83;;
5167;SDS011;2603;48.918;8.980;2022-08-19T03:17:08;29.10;;;17.27;;
5167;SDS011;2603;48.918;8.980;2022-08-19T03:19:36;23.20;;;15.77;;
5167;SDS011;2603;48.918;8.980;2022-08-19T03:22:03;29.07;;;18.40;;
5167;SDS011;2603;48.918;8.980;2022-08-19T03:24:30;26.93;;;17.47;;
5167;SDS011;2603;48.918;8.980;2022-08-19T03:26:57;25.53;;;17.43;;
5167;SDS011;2603;48.918;8.980;2022-08-19T03:29:24;30.43;;;17.73;;
5167;SDS011;2603;48.918;8.980;2022-08-19T03:31:52;24.50;;;16.27;;
5167;SDS011;2603;48.918;8.980;2022-08-19T03:34:21;30.13;;;18.30;;
5167;SDS011;2603;48.918;8.980;2022-08-19T03:36:52;24.33;;;16.13;;
5167;SDS011;2603;48.918;8.980;2022-08-19T03:39:19;32.57;;;18.77;;
5167;SDS011;2603;48.918;8.980;2022-08-19T03:41:47;27.23;;;17.07;;
5167;SDS011;2603;48.918;8.980;2022-08-19T03:44:15;26.60;;;18.10;;
5167;SDS011;2603;48.918;8.980;2022-08-19T03:46:46;26.47;;;17.47;;
5167;SDS011;2603;48.918;8.980;2022-08-19T03:49:13;26.40;;;17.57;;
5167;SDS011;2603;48.918;8.980;2022-08-19T03:51:40;27.70;;;17.43;;
5167;SDS011;2603;48.918;8.980;2022-08-19T03:54:10;29.47;;;19.20;;
5167;SDS011;2603;48.918;8.980;2022-08-19T03:56:38;31.53;;;18.33;;
5167;SDS011;2603;48.918;8.980;2022-08-19T03:59:06;30.13;;;17.70;;
5167;SDS011;2603;48.918;8.980;2022-08-19T04:01:34;25.33;;;15.40;;
5167;SDS011;2603;48.918;8.980;2022-08-19T04:04:00;25.40;;;16.00;;
5167;SDS011;2603;48.918;8.980;2022-08-19T04:06:29;26.10;;;16.43;;
5167;SDS011;2603;48.918;8.980;2022-08-19T04:08:57;26.67;;;16.80;;
5167;SDS011;2603;48.918;8.980;2022-08-19T04:11:28;27.00;;;18.30;;
5167;SDS011;2603;48.918;8.980;2022-08-19T04:13:58;26.93;;;18.00;;
5167;SDS011;2603;48.918;8.980;2022-08-19T04:16:26;27.07;;;17.00;;
5167;SDS011;2603;48.918;8.980;2022-08-19T04:18:53;26.83;;;17.87;;
5167;SDS011;2603;48.918;8.980;2022-08-19T04:21:21;31.40;;;18.23;;
5167;SDS011;2603;48.918;8.980;2022-08-19T04:23:49;24.53;;;17.17;;
5167;SDS011;2603;48.918;8.980;2022-08-19T04:26:17;32.00;;;16.77;;
5167;SDS011;2603;48.918;8.980;2022-08-19T04:28:46;25.67;;;16.53;;
5167;SDS011;2603;48.918;8.980;2022-08-19T04:31:13;28.37;;;18.73;;
5167;SDS011;2603;48.918;8.980;2022-08-19T04:33:40;29.07;;;17.70;;
5167;SDS011;2603;48.918;8.980;2022-08-19T04:36:07;32.63;;;18.93;;
5167;SDS011;2603;48.918;8.980;2022-08-19T04:38:35;28.40;;;18.63;;
5167;SDS011;2603;48.918;8.980;2022-08-19T04:41:02;25.57;;;18.17;;
5167;SDS011;2603;48.918;8.980;2022-08-19T04:44:01;24.63;;;16.60;;
5167;SDS011;2603;48.918;8.980;2022-08-19T04:46:28;25.93;;;17.80;;
5167;SDS011;2603;48.918;8.980;2022-08-19T04:48:56;30.40;;;18.00;;
5167;SDS011;2603;48.918;8.980;2022-08-19T04:51:22;29.53;;;18.80;;
5167;SDS011;2603;48.918;8.980;2022-08-19T04:53:49;27.30;;;17.40;;
5167;SDS011;2603;48.918;8.980;2022-08-19T04:56:17;26.80;;;17.43;;
5167;SDS011;2603;48.918;8.980;2022-08-19T04:58:44;28.67;;;17.53;;
5167;SDS011;2603;48.918;8.980;2022-08-19T05:01:13;27.27;;;17.40;;
5167;SDS011;2603;48.918;8.980;2022-08-19T05:03:40;32.23;;;18.47;;
5167;SDS011;2603;48.918;8.980;2022-08-19T05:06:07;26.90;;;18.13;;
5167;SDS011;2603;48.918;8.980;2022-08-19T05:08:35;26.70;;;18.13;;
5167;SDS011;2603;48.918;8.980;2022-08-19T05:11:07;28.57;;;18.77;;
5167;SDS011;2603;48.918;8.980;2022-08-19T05:13:36;26.77;;;18.20;;
5167;SDS011;2603;48.918;8.980;2022-08-19T05:16:03;27.90;;;17.80;;
5167;SDS011;2603;48.918;8.980;2022-08-19T05:18:31;26.90;;;17.80;;
5167;SDS011;2603;48.918;8.980;2022-08-19T05:21:17;26.10;;;18.70;;
5167;SDS011;2603;48.918;8.980;2022-08-19T05:24:02;27.70;;;18.97;;
5167;SDS011;2603;48.918;8.980;2022-08-19T05:26:33;31.13;;;19.23;;
5167;SDS011;2603;48.918;8.980;2022-08-19T05:29:00;37.40;;;17.80;;
5167;SDS011;2603;48.918;8.980;2022-08-19T05:31:28;30.63;;;19.80;;
5167;SDS011;2603;48.918;8.980;2022-08-19T05:33:56;33.40;;;19.70;;
5167;SDS011;2603;48.918;8.980;2022-08-19T05:36:23;28.90;;;19.07;;
5167;SDS011;2603;48.918;8.980;2022-08-19T05:38:50;31.17;;;18.43;;
5167;SDS011;2603;48.918;8.980;2022-08-19T05:41:17;29.30;;;20.00;;
5167;SDS011;2603;48.918;8.980;2022-08-19T05:43:44;34.83;;;20.37;;
5167;SDS011;2603;48.918;8.980;2022-08-19T05:46:15;29.40;;;20.80;;
5167;SDS011;2603;48.918;8.980;2022-08-19T05:48:44;27.37;;;18.90;;
5167;SDS011;2603;48.918;8.980;2022-08-19T05:51:12;37.10;;;17.97;;
5167;SDS011;2603;48.918;8.980;2022-08-19T05:53:38;27.93;;;18.43;;
5167;SDS011;2603;48.918;8.980;2022-08-19T05:56:05;30.63;;;17.67;;
5167;SDS011;2603;48.918;8.980;2022-08-19T05:58:32;29.67;;;19.20;;
5167;SDS011;2603;48.918;8.980;2022-08-19T06:00:59;24.70;;;16.90;;
5167;SDS011;2603;48.918;8.980;2022-08-19T06:03:29;27.93;;;18.87;;
5167;SDS011;2603;48.918;8.980;2022-08-19T06:05:56;28.70;;;18.57;;
5167;SDS011;2603;48.918;8.980;2022-08-19T06:08:25;26.60;;;17.20;;
5167;SDS011;2603;48.918;8.980;2022-08-19T06:10:52;26.50;;;18.03;;
5167;SDS011;2603;48.918;8.980;2022-08-19T06:13:19;32.70;;;17.93;;
5167;SDS011;2603;48.918;8.980;2022-08-19T06:15:46;27.77;;;18.33;;
5167;SDS011;2603;48.918;8.980;2022-08-19T06:18:13;25.67;;;17.97;;
5167;SDS011;2603;48.918;8.980;2022-08-19T06:20:40;24.83;;;17.03;;
5167;SDS011;2603;48.918;8.980;2022-08-19T06:23:07;25.87;;;18.10;;
5167;SDS011;2603;48.918;8.980;2022-08-19T06:25:36;27.10;;;17.47;;
5167;SDS011;2603;48.918;8.980;2022-08-19T06:28:05;30.93;;;18.83;;
5167;SDS011;2603;48.918;8.980;2022-08-19T06:30:31;24.53;;;16.27;;
5167;SDS011;2603;48.918;8.980;2022-08-19T06:32:58;24.63;;;17.07;;
5167;SDS011;2603;48.918;8.980;2022-08-19T06:35:25;26.53;;;16.57;;
5167;SDS011;2603;48.918;8.980;2022-08-19T06:37:52;26.90;;;17.33;;
5167;SDS011;2603;48.918;8.980;2022-08-19T06:40:18;27.77;;;16.90;;
5167;SDS011;2603;48.918;8.980;2022-08-19T06:42:46;35.10;;;19.07;;
5167;SDS011;2603;48.918;8.980;2022-08-19T06:45:13;22.57;;;16.07;;
5167;SDS011;2603;48.918;8.980;2022-08-19T06:47:41;23.63;;;15.33;;
5167;SDS011;2603;48.918;8.980;2022-08-19T06:50:13;24.10;;;16.83;;
5167;SDS011;2603;48.918;8.980;2022-08-19T06:52:40;22.27;;;15.90;;
5167;SDS011;2603;48.918;8.980;2022-08-19T06:55:07;25.60;;;15.53;;
5167;SDS011;2603;48.918;8.980;2022-08-19T06:57:34;30.30;;;16.83;;
5167;SDS011;2603;48.918;8.980;2022-08-19T07:00:02;22.87;;;15.53;;
5167;SDS011;2603;48.918;8.980;2022-08-19T07:02:30;28.43;;;15.23;;
5167;SDS011;2603;48.918;8.980;2022-08-19T07:04:57;25.37;;;17.30;;
5167;SDS011;2603;48.918;8.980;2022-08-19T07:07:23;26.77;;;17.67;;
5167;SDS011;2603;48.918;8.980;2022-08-19T07:09:51;22.40;;;15.50;;
5167;SDS011;2603;48.918;8.980;2022-08-19T07:12:18;23.20;;;16.50;;
5167;SDS011;2603;48.918;8.980;2022-08-19T07:14:45;25.50;;;16.37;;
5167;SDS011;2603;48.918;8.980;2022-08-19T07:17:13;27.67;;;15.87;;
5167;SDS011;2603;48.918;8.980;2022-08-19T07:19:41;25.17;;;15.67;;
5167;SDS011;2603;48.918;8.980;2022-08-19T07:22:08;28.23;;;16.67;;
5167;SDS011;2603;48.918;8.980;2022-08-19T07:24:35;23.83;;;15.33;;
5167;SDS011;2603;48.918;8.980;2022-08-19T07:27:03;19.27;;;12.43;;
5167;SDS011;2603;48.918;8.980;2022-08-19T07:29:32;20.20;;;14.77;;
5167;SDS011;2603;48.918;8.980;2022-08-19T07:32:01;24.17;;;15.17;;
5167;SDS011;2603;48.918;8.980;2022-08-19T07:34:30;22.57;;;15.00;;
5167;SDS011;2603;48.918;8.980;2022-08-19T07:36:59;22.63;;;15.77;;
5167;SDS011;2603;48.918;8.980;2022-08-19T07:39:27;23.00;;;15.50;;
5167;SDS011;2603;48.918;8.980;2022-08-19T07:41:55;24.60;;;16.03;;
5167;SDS011;2603;48.918;8.980;2022-08-19T07:44:24;24.40;;;15.30;;
5167;SDS011;2603;48.918;8.980;2022-08-19T07:46:51;23.73;;;14.33;;
5167;SDS011;2603;48.918;8.980;2022-08-19T07:49:20;23.20;;;15.60;;
5167;SDS011;2603;48.918;8.980;2022-08-19T07:51:50;31.13;;;14.07;;
5167;SDS011;2603;48.918;8.980;2022-08-19T07:54:17;21.03;;;14.67;;
5167;SDS011;2603;48.918;8.980;2022-08-19T07:56:45;24.53;;;14.07;;
5167;SDS011;2603;48.918;8.980;2022-08-19T07:59:12;26.30;;;14.67;;
5167;SDS011;2603;48.918;8.980;2022-08-19T08:01:38;20.23;;;14.70;;
5167;SDS011;2603;48.918;8.980;2022-08-19T08:04:06;26.00;;;15.13;;
5167;SDS011;2603;48.918;8.980;2022-08-19T08:06:52;28.43;;;14.10;;
5167;SDS011;2603;48.918;8.980;2022-08-19T08:09:36;22.17;;;14.50;;
5167;SDS011;2603;48.918;8.980;2022-08-19T08:12:05;27.33;;;16.10;;
5167;SDS011;2603;48.918;8.980;2022-08-19T08:14:35;24.13;;;14.30;;
5167;SDS011;2603;48.918;8.980;2022-08-19T08:17:03;19.67;;;12.73;;
5167;SDS011;2603;48.918;8.980;2022-08-19T08:19:32;22.43;;;14.10;;
5167;SDS011;2603;48.918;8.980;2022-08-19T08:22:01;25.07;;;12.83;;
5167;SDS011;2603;48.918;8.980;2022-08-19T08:24:29;20.03;;;14.23;;
5167;SDS011;2603;48.918;8.980;2022-08-19T08:26:57;23.60;;;14.33;;
5167;SDS011;2603;48.918;8.980;2022-08-19T08:29:24;24.93;;;14.40;;
5167;SDS011;2603;48.918;8.980;2022-08-19T08:31:52;21.60;;;15.00;;
5167;SDS011;2603;48.918;8.980;2022-08-19T08:34:19;20.17;;;13.80;;
5167;SDS011;2603;48.918;8.980;2022-08-19T08:36:46;26.20;;;15.07;;
5167;SDS011;2603;48.918;8.980;2022-08-19T08:39:15;19.00;;;14.37;;
5167;SDS011;2603;48.918;8.980;2022-08-19T08:41:44;16.60;;;12.00;;
5167;SDS011;2603;48.918;8.980;2022-08-19T08:44:16;18.33;;;13.53;;
5167;SDS011;2603;48.918;8.980;2022-08-19T08:46:46;23.77;;;13.87;;
5167;SDS011;2603;48.918;8.980;2022-08-19T08:49:20;21.50;;;12.63;;
5167;SDS011;2603;48.918;8.980;2022-08-19T08:51:57;18.37;;;12.00;;
5167;SDS011;2603;48.918;8.980;2022-08-19T08:54:30;19.60;;;12.23;;
5167;SDS011;2603;48.918;8.980;2022-08-19T08:57:00;20.93;;;12.00;;
5167;SDS011;2603;48.918;8.980;2022-08-19T08:59:28;23.63;;;11.90;;
5167;SDS011;2603;48.918;8.980;2022-08-19T09:01:57;20.10;;;12.20;;
5167;SDS011;2603;48.918;8.980;2022-08-19T09:04:24;18.33;;;10.90;;
5167;SDS011;2603;48.918;8.980;2022-08-19T09:06:53;20.13;;;10.77;;
5167;SDS011;2603;48.918;8.980;2022-08-19T09:09:24;27.33;;;11.57;;
5167;SDS011;2603;48.918;8.980;2022-08-19T09:12:00;17.73;;;11.43;;
5167;SDS011;2603;48.918;8.980;2022-08-19T09:14:33;14.90;;;11.07;;
5167;SDS011;2603;48.918;8.980;2022-08-19T09:17:03;14.70;;;11.00;;
5167;SDS011;2603;48.918;8.980;2022-08-19T09:19:33;13.40;;;10.43;;
5167;SDS011;2603;48.918;8.980;2022-08-19T09:22:00;16.20;;;9.60;;
5167;SDS011;2603;48.918;8.980;2022-08-19T09:24:27;23.10;;;10.63;;
5167;SDS011;2603;48.918;8.980;2022-08-19T09:26:54;16.27;;;10.03;;
5167;SDS011;2603;48.918;8.980;2022-08-19T09:29:22;24.10;;;10.23;;
5167;SDS011;2603;48.918;8.980;2022-08-19T09:31:49;27.67;;;11.53;;
5167;SDS011;2603;48.918;8.980;2022-08-19T09:34:16;15.70;;;10.50;;
5167;SDS011;2603;48.918;8.980;2022-08-19T09:36:44;20.77;;;9.77;;
5167;SDS011;2603;48.918;8.980;2022-08-19T09:39:11;15.90;;;10.07;;
5167;SDS011;2603;48.918;8.980;2022-08-19T09:41:38;12.37;;;9.00;;
5167;SDS011;2603;48.918;8.980;2022-08-19T09:44:04;13.57;;;10.30;;
5167;SDS011;2603;48.918;8.980;2022-08-19T09:46:32;15.40;;;9.20;;
5167;SDS011;2603;48.918;8.980;2022-08-19T09:49:01;16.73;;;10.23;;
5167;SDS011;2603;48.918;8.980;2022-08-19T09:51:30;17.73;;;10.80;;
5167;SDS011;2603;48.918;8.980;2022-08-19T09:53:59;13.20;;;10.13;;
5167;SDS011;2603;48.918;8.980;2022-08-19T09:56:26;15.43;;;8.30;;
5167;SDS011;2603;48.918;8.980;2022-08-19T09:58:53;18.93;;;10.23;;
5167;SDS011;2603;48.918;8.980;2022-08-19T10:01:22;13.80;;;9.33;;
5167;SDS011;2603;48.918;8.980;2022-08-19T10:03:52;14.60;;;9.50;;
5167;SDS011;2603;48.918;8.980;2022-08-19T10:06:20;14.43;;;8.37;;
5167;SDS011;2603;48.918;8.980;2022-08-19T10:08:48;14.30;;;8.40;;
5167;SDS011;2603;48.918;8.980;2022-08-19T10:11:16;12.90;;;8.23;;
5167;SDS011;2603;48.918;8.980;2022-08-19T10:13:43;12.97;;;8.23;;
5167;SDS011;2603;48.918;8.980;2022-08-19T10:16:11;12.30;;;8.43;;
5167;SDS011;2603;48.918;8.980;2022-08-19T10:18:39;13.57;;;9.13;;
5167;SDS011;2603;48.918;8.980;2022-08-19T10:21:10;15.07;;;8.47;;
5167;SDS011;2603;48.918;8.980;2022-08-19T10:23:39;10.50;;;7.50;;
5167;SDS011;2603;48.918;8.980;2022-08-19T10:26:09;12.13;;;7.70;;
5167;SDS011;2603;48.918;8.980;2022-08-19T10:28:36;18.60;;;8.50;;
5167;SDS011;2603;48.918;8.980;2022-08-19T10:31:04;11.57;;;7.87;;
5167;SDS011;2603;48.918;8.980;2022-08-19T10:33:31;10.87;;;7.47;;
5167;SDS011;2603;48.918;8.980;2022-08-19T10:35:59;10.47;;;8.00;;
5167;SDS011;2603;48.918;8.980;2022-08-19T10:38:28;9.80;;;7.93;;
5167;SDS011;2603;48.918;8.980;2022-08-19T10:40:55;10.67;;;6.93;;
5167;SDS011;2603;48.918;8.980;2022-08-19T10:43:21;13.20;;;7.50;;
5167;SDS011;2603;48.918;8.980;2022-08-19T10:45:51;8.27;;;6.03;;
5167;SDS011;2603;48.918;8.980;2022-08-19T10:48:18;8.40;;;6.60;;
5167;SDS011;2603;48.918;8.980;2022-08-19T10:50:45;11.10;;;6.53;;
5167;SDS011;2603;48.918;8.980;2022-08-19T10:53:31;7.43;;;5.63;;
5167;SDS011;2603;48.918;8.980;2022-08-19T10:55:57;10.83;;;6.13;;
5167;SDS011;2603;48.918;8.980;2022-08-19T10:58:41;9.37;;;6.83;;
5167;SDS011;2603;48.918;8.980;2022-08-19T11:01:09;13.27;;;6.30;;
5167;SDS011;2603;48.918;8.980;2022-08-19T11:03:36;9.80;;;6.50;;
5167;SDS011;2603;48.918;8.980;2022-08-19T11:06:03;12.43;;;6.70;;
5167;SDS011;2603;48.918;8.980;2022-08-19T11:08:33;8.53;;;5.80;;
5167;SDS011;2603;48.918;8.980;2022-08-19T11:11:03;7.00;;;5.20;;
5167;SDS011;2603;48.918;8.980;2022-08-19T11:13:31;5.33;;;4.80;;
5167;SDS011;2603;48.918;8.980;2022-08-19T11:16:03;8.70;;;5.57;;
5167;SDS011;2603;48.918;8.980;2022-08-19T11:18:32;7.03;;;4.77;;
5167;SDS011;2603;48.918;8.980;2022-08-19T11:21:08;7.83;;;5.03;;
5167;SDS011;2603;48.918;8.980;2022-08-19T11:23:37;7.30;;;5.13;;
5167;SDS011;2603;48.918;8.980;2022-08-19T11:26:03;10.37;;;4.87;;
5167;SDS011;2603;48.918;8.980;2022-08-19T11:28:30;7.83;;;4.40;;
5167;SDS011;2603;48.918;8.980;2022-08-19T11:30:57;6.60;;;4.00;;
5167;SDS011;2603;48.918;8.980;2022-08-19T11:33:23;6.83;;;4.70;;
5167;SDS011;2603;48.918;8.980;2022-08-19T11:35:51;6.50;;;4.90;;
5167;SDS011;2603;48.918;8.980;2022-08-19T11:38:18;8.03;;;5.30;;
5167;SDS011;2603;48.918;8.980;2022-08-19T11:40:53;7.50;;;5.10;;
5167;SDS011;2603;48.918;8.980;2022-08-19T11:43:20;8.60;;;4.60;;
5167;SDS011;2603;48.918;8.980;2022-08-19T11:45:47;7.60;;;4.80;;
5167;SDS011;2603;48.918;8.980;2022-08-19T11:48:13;10.23;;;5.40;;
5167;SDS011;2603;48.918;8.980;2022-08-19T11:50:40;8.47;;;5.10;;
5167;SDS011;2603;48.918;8.980;2022-08-19T11:53:07;8.07;;;4.40;;
5167;SDS011;2603;48.918;8.980;2022-08-19T11:55:36;6.23;;;4.47;;
5167;SDS011;2603;48.918;8.980;2022-08-19T11:58:05;8.63;;;4.63;;
5167;SDS011;2603;48.918;8.980;2022-08-19T12:00:33;7.53;;;4.80;;
5167;SDS011;2603;48.918;8.980;2022-08-19T12:03:00;10.83;;;5.23;;
5167;SDS011;2603;48.918;8.980;2022-08-19T12:05:27;6.17;;;3.77;;
5167;SDS011;2603;48.918;8.980;2022-08-19T12:07:53;6.90;;;3.93;;
5167;SDS011;2603;48.918;8.980;2022-08-19T12:10:21;9.53;;;3.90;;
5167;SDS011;2603;48.918;8.980;2022-08-19T12:12:48;5.70;;;3.20;;
5167;SDS011;2603;48.918;8.980;2022-08-19T12:15:16;10.83;;;4.13;;
5167;SDS011;2603;48.918;8.980;2022-08-19T12:17:42;7.23;;;4.70;;
5167;SDS011;2603;48.918;8.980;2022-08-19T12:20:10;6.63;;;4.70;;
5167;SDS011;2603;48.918;8.980;2022-08-19T12:22:38;5.67;;;4.60;;
5167;SDS011;2603;48.918;8.980;2022-08-19T12:25:08;5.30;;;4.47;;
5167;SDS011;2603;48.918;8.980;2022-08-19T12:27:36;7.37;;;4.97;;
5167;SDS011;2603;48.918;8.980;2022-08-19T12:30:04;13.23;;;5.80;;
5167;SDS011;2603;48.918;8.980;2022-08-19T12:32:33;10.70;;;4.97;;
5167;SDS011;2603;48.918;8.980;2022-08-19T12:35:00;6.33;;;4.70;;
5167;SDS011;2603;48.918;8.980;2022-08-19T12:37:27;6.07;;;4.03;;
5167;SDS011;2603;48.918;8.980;2022-08-19T12:39:54;8.60;;;4.53;;
5167;SDS011;2603;48.918;8.980;2022-08-19T12:42:21;5.70;;;3.90;;
5167;SDS011;2603;48.918;8.980;2022-08-19T12:44:48;5.20;;;4.20;;
5167;SDS011;2603;48.918;8.980;2022-08-19T12:47:14;7.90;;;4.43;;
5167;SDS011;2603;48.918;8.980;2022-08-19T12:49:43;6.30;;;4.70;;
5167;SDS011;2603;48.918;8.980;2022-08-19T12:52:11;8.80;;;4.37;;
5167;SDS011;2603;48.918;8.980;2022-08-19T12:54:40;7.13;;;4.23;;
5167;SDS011;2603;48.918;8.980;2022-08-19T12:57:07;5.33;;;4.37;;
5167;SDS011;2603;48.918;8.980;2022-08-19T12:59:35;10.17;;;4.90;;
5167;SDS011;2603;48.918;8.980;2022-08-19T13:02:02;5.40;;;4.70;;
5167;SDS011;2603;48.918;8.980;2022-08-19T13:04:31;13.90;;;5.17;;
5167;SDS011;2603;48.918;8.980;2022-08-19T13:07:01;7.03;;;4.40;;
5167;SDS011;2603;48.918;8.980;2022-08-19T13:09:28;6.43;;;4.37;;
5167;SDS011;2603;48.918;8.980;2022-08-19T13:11:54;4.93;;;4.40;;
5167;SDS011;2603;48.918;8.980;2022-08-19T13:14:21;6.23;;;4.30;;
5167;SDS011;2603;48.918;8.980;2022-08-19T13:16:48;10.97;;;4.83;;
5167;SDS011;2603;48.918;8.980;2022-08-19T13:19:14;6.97;;;4.90;;
5167;SDS011;2603;48.918;8.980;2022-08-19T13:21:41;7.83;;;4.93;;
5167;SDS011;2603;48.918;8.980;2022-08-19T13:24:09;8.07;;;5.20;;
5167;SDS011;2603;48.918;8.980;2022-08-19T13:26:35;6.63;;;4.47;;
5167;SDS011;2603;48.918;8.980;2022-08-19T13:29:02;11.63;;;5.33;;
5167;SDS011;2603;48.918;8.980;2022-08-19T13:31:46;6.03;;;3.97;;
5167;SDS011;2603;48.918;8.980;2022-08-19T13:34:32;7.70;;;4.30;;
5167;SDS011;2603;48.918;8.980;2022-08-19T13:37:01;6.70;;;5.43;;
5167;SDS011;2603;48.918;8.980;2022-08-19T13:39:30;6.83;;;6.03;;
5167;SDS011;2603;48.918;8.980;2022-08-19T13:41:57;13.50;;;5.20;;
5167;SDS011;2603;48.918;8.980;2022-08-19T13:44:25;7.47;;;5.60;;
5167;SDS011;2603;48.918;8.980;2022-08-19T13:46:54;6.20;;;5.60;;
5167;SDS011;2603;48.918;8.980;2022-08-19T13:49:21;7.23;;;5.53;;
5167;SDS011;2603;48.918;8.980;2022-08-19T13:51:48;7.20;;;5.57;;
5167;SDS011;2603;48.918;8.980;2022-08-19T13:54:15;11.50;;;5.07;;
5167;SDS011;2603;48.918;8.980;2022-08-19T13:56:44;5.43;;;4.43;;
5167;SDS011;2603;48.918;8.980;2022-08-19T13:59:10;5.93;;;4.47;;
5167;SDS011;2603;48.918;8.980;2022-08-19T14:01:38;6.07;;;4.00;;
5167;SDS011;2603;48.918;8.980;2022-08-19T14:04:05;4.37;;;3.97;;
5167;SDS011;2603;48.918;8.980;2022-08-19T14:06:32;6.60;;;4.40;;
5167;SDS011;2603;48.918;8.980;2022-08-19T14:08:58;5.50;;;3.50;;
5167;SDS011;2603;48.918;8.980;2022-08-19T14:11:27;7.27;;;3.57;;
5167;SDS011;2603;48.918;8.980;2022-08-19T14:13:55;5.40;;;4.10;;
5167;SDS011;2603;48.918;8.980;2022-08-19T14:16:21;6.10;;;4.70;;
5167;SDS011;2603;48.918;8.980;2022-08-19T14:18:48;9.53;;;4.27;;
5167;SDS011;2603;48.918;8.980;2022-08-19T14:21:15;4.80;;;3.60;;
5167;SDS011;2603;48.918;8.980;2022-08-19T14:23:43;8.00;;;4.37;;
5167;SDS011;2603;48.918;8.980;2022-08-19T14:26:11;8.33;;;3.80;;
5167;SDS011;2603;48.918;8.980;2022-08-19T14:28:38;5.90;;;4.17;;
5167;SDS011;2603;48.918;8.980;2022-08-19T14:31:08;5.73;;;4.70;;
5167;SDS011;2603;48.918;8.980;2022-08-19T14:33:34;4.40;;;3.50;;
5167;SDS011;2603;48.918;8.980;2022-08-19T14:36:01;11.10;;;4.00;;
5167;SDS011;2603;48.918;8.980;2022-08-19T14:38:28;8.20;;;4.20;;
5167;SDS011;2603;48.918;8.980;2022-08-19T14:41:04;5.73;;;4.33;;
5167;SDS011;2603;48.918;8.980;2022-08-19T14:43:36;7.80;;;4.80;;
5167;SDS011;2603;48.918;8.980;2022-08-19T14:46:03;7.80;;;3.87;;
5167;SDS011;2603;48.918;8.980;2022-08-19T14:48:31;9.30;;;4.07;;
5167;SDS011;2603;48.918;8.980;2022-08-19T14:50:58;4.93;;;4.40;;
5167;SDS011;2603;48.918;8.980;2022-08-19T14:53:24;6.47;;;3.70;;
5167;SDS011;2603;48.918;8.980;2022-08-19T14:55:51;5.10;;;4.00;;
5167;SDS011;2603;48.918;8.980;2022-08-19T14:58:18;4.90;;;3.50;;
5167;SDS011;2603;48.918;8.980;2022-08-19T15:00:45;5.60;;;3.80;;
5167;SDS011;2603;48.918;8.980;2022-08-19T15:03:12;4.33;;;3.47;;